Terminal Aerodrome Forecast
Issued by NWS Quad Cities IA IL

Home | Current Version | Previous Version | Text Only | Print | Product List | Glossary On
Versions: 1 2 3 4 5 6 7 8 9 10 11 12 13 14 15 16 17 18 19 20 21 22 23 24 25
000
FTUS43 KDVN 290858 AAC
TAFDBQ
TAF AMD
KDBQ 290858Z 2909/3006 02005KT 6SM BR OVC006
      TEMPO 2909/2912 4SM BR OVC003
     FM291400 03007KT 6SM BR BKN009
     FM291600 05008KT P6SM BKN020
     FM300000 08010KT P6SM BKN035=

USA.gov is the U.S. government's official web portal to all federal, state and local government web resources and services.